sensor_id;sensor_type;location;lat;lon;timestamp;temperature;humidity
26947;DHT22;14501;52.282;10.560;2022-09-21T00:00:48;6.60;99.90
26947;DHT22;14501;52.282;10.560;2022-09-21T00:03:14;6.60;99.90
26947;DHT22;14501;52.282;10.560;2022-09-21T00:05:40;6.60;99.90
26947;DHT22;14501;52.282;10.560;2022-09-21T00:08:07;6.60;99.90
26947;DHT22;14501;52.282;10.560;2022-09-21T00:10:33;6.60;99.90
26947;DHT22;14501;52.282;10.560;2022-09-21T00:12:59;6.60;99.90
26947;DHT22;14501;52.282;10.560;2022-09-21T00:15:28;6.60;99.90
26947;DHT22;14501;52.282;10.560;2022-09-21T00:17:56;6.50;99.90
26947;DHT22;14501;52.282;10.560;2022-09-21T00:20:23;6.50;99.90
26947;DHT22;14501;52.282;10.560;2022-09-21T00:22:49;6.50;99.90
26947;DHT22;14501;52.282;10.560;2022-09-21T00:25:16;6.50;99.90
26947;DHT22;14501;52.282;10.560;2022-09-21T00:27:42;6.50;99.90
26947;DHT22;14501;52.282;10.560;2022-09-21T00:30:08;6.50;99.90
26947;DHT22;14501;52.282;10.560;2022-09-21T00:32:36;6.40;99.90
26947;DHT22;14501;52.282;10.560;2022-09-21T00:35:04;6.40;99.90
26947;DHT22;14501;52.282;10.560;2022-09-21T00:37:33;6.40;99.90
26947;DHT22;14501;52.282;10.560;2022-09-21T00:39:59;6.40;99.90
26947;DHT22;14501;52.282;10.560;2022-09-21T00:42:27;6.40;99.90
26947;DHT22;14501;52.282;10.560;2022-09-21T00:44:54;6.40;99.90
26947;DHT22;14501;52.282;10.560;2022-09-21T00:47:27;6.40;99.90
26947;DHT22;14501;52.282;10.560;2022-09-21T00:49:56;6.40;99.90
26947;DHT22;14501;52.282;10.560;2022-09-21T00:52:24;6.40;99.90
26947;DHT22;14501;52.282;10.560;2022-09-21T00:54:56;6.40;99.90
26947;DHT22;14501;52.282;10.560;2022-09-21T00:57:25;6.40;99.90
26947;DHT22;14501;52.282;10.560;2022-09-21T00:59:54;6.40;99.90
26947;DHT22;14501;52.282;10.560;2022-09-21T01:02:21;6.40;99.90
26947;DHT22;14501;52.282;10.560;2022-09-21T01:04:48;6.40;99.90
26947;DHT22;14501;52.282;10.560;2022-09-21T01:07:21;6.40;99.90
26947;DHT22;14501;52.282;10.560;2022-09-21T01:09:51;6.30;99.90
26947;DHT22;14501;52.282;10.560;2022-09-21T01:21:22;6.40;99.90
26947;DHT22;14501;52.282;10.560;2022-09-21T01:29:37;6.30;99.90
26947;DHT22;14501;52.282;10.560;2022-09-21T01:32:21;6.30;99.90
26947;DHT22;14501;52.282;10.560;2022-09-21T01:37:46;6.30;99.90
26947;DHT22;14501;52.282;10.560;2022-09-21T01:40:24;6.20;99.90
26947;DHT22;14501;52.282;10.560;2022-09-21T01:42:53;6.20;99.90
26947;DHT22;14501;52.282;10.560;2022-09-21T01:45:26;6.10;99.90
26947;DHT22;14501;52.282;10.560;2022-09-21T01:47:56;6.10;99.90
26947;DHT22;14501;52.282;10.560;2022-09-21T01:50:22;6.10;99.90
26947;DHT22;14501;52.282;10.560;2022-09-21T01:52:57;6.10;99.90
26947;DHT22;14501;52.282;10.560;2022-09-21T01:55:33;6.10;99.90
26947;DHT22;14501;52.282;10.560;2022-09-21T01:58:27;6.20;99.90
26947;DHT22;14501;52.282;10.560;2022-09-21T02:00:57;6.20;99.90
26947;DHT22;14501;52.282;10.560;2022-09-21T02:05:52;6.10;99.90
26947;DHT22;14501;52.282;10.560;2022-09-21T02:08:18;6.10;99.90
26947;DHT22;14501;52.282;10.560;2022-09-21T02:10:49;6.10;99.90
26947;DHT22;14501;52.282;10.560;2022-09-21T02:13:17;6.10;99.90
26947;DHT22;14501;52.282;10.560;2022-09-21T02:24:01;6.10;99.90
26947;DHT22;14501;52.282;10.560;2022-09-21T02:26:38;6.00;99.90
26947;DHT22;14501;52.282;10.560;2022-09-21T02:31:52;6.00;99.90
26947;DHT22;14501;52.282;10.560;2022-09-21T02:34:31;6.00;99.90
26947;DHT22;14501;52.282;10.560;2022-09-21T02:37:16;6.00;99.90
26947;DHT22;14501;52.282;10.560;2022-09-21T02:42:13;5.90;99.90
26947;DHT22;14501;52.282;10.560;2022-09-21T02:44:51;5.90;99.90
26947;DHT22;14501;52.282;10.560;2022-09-21T02:47:21;5.90;99.90
26947;DHT22;14501;52.282;10.560;2022-09-21T02:49:57;5.90;99.90
26947;DHT22;14501;52.282;10.560;2022-09-21T02:52:26;5.90;99.90
26947;DHT22;14501;52.282;10.560;2022-09-21T02:54:53;5.90;99.90
26947;DHT22;14501;52.282;10.560;2022-09-21T02:57:21;5.80;99.90
26947;DHT22;14501;52.282;10.560;2022-09-21T02:59:48;5.80;99.90
26947;DHT22;14501;52.282;10.560;2022-09-21T03:02:14;5.80;99.90
26947;DHT22;14501;52.282;10.560;2022-09-21T03:04:42;5.80;99.90
26947;DHT22;14501;52.282;10.560;2022-09-21T03:07:15;5.80;99.90
26947;DHT22;14501;52.282;10.560;2022-09-21T03:09:41;5.80;99.90
26947;DHT22;14501;52.282;10.560;2022-09-21T03:12:07;5.80;99.90
26947;DHT22;14501;52.282;10.560;2022-09-21T03:14:32;5.80;99.90
26947;DHT22;14501;52.282;10.560;2022-09-21T03:16:58;5.70;99.90
26947;DHT22;14501;52.282;10.560;2022-09-21T03:19:25;5.80;99.90
26947;DHT22;14501;52.282;10.560;2022-09-21T03:21:51;5.80;99.90
26947;DHT22;14501;52.282;10.560;2022-09-21T03:24:19;5.80;99.90
26947;DHT22;14501;52.282;10.560;2022-09-21T03:27:04;5.80;99.90
26947;DHT22;14501;52.282;10.560;2022-09-21T03:29:30;5.70;99.90
26947;DHT22;14501;52.282;10.560;2022-09-21T03:31:55;5.70;99.90
26947;DHT22;14501;52.282;10.560;2022-09-21T03:34:21;5.70;99.90
26947;DHT22;14501;52.282;10.560;2022-09-21T03:36:47;5.70;99.90
26947;DHT22;14501;52.282;10.560;2022-09-21T03:39:13;5.70;99.90
26947;DHT22;14501;52.282;10.560;2022-09-21T03:41:39;5.70;99.90
26947;DHT22;14501;52.282;10.560;2022-09-21T03:44:04;5.70;99.90
26947;DHT22;14501;52.282;10.560;2022-09-21T03:46:30;5.70;99.90
26947;DHT22;14501;52.282;10.560;2022-09-21T03:49:00;5.70;99.90
26947;DHT22;14501;52.282;10.560;2022-09-21T03:51:25;5.70;99.90
26947;DHT22;14501;52.282;10.560;2022-09-21T03:53:51;5.70;99.90
26947;DHT22;14501;52.282;10.560;2022-09-21T03:56:17;5.60;99.90
26947;DHT22;14501;52.282;10.560;2022-09-21T03:58:43;5.70;99.90
26947;DHT22;14501;52.282;10.560;2022-09-21T04:01:09;5.60;99.90
26947;DHT22;14501;52.282;10.560;2022-09-21T04:03:34;5.60;99.90
26947;DHT22;14501;52.282;10.560;2022-09-21T04:06:00;5.60;99.90
26947;DHT22;14501;52.282;10.560;2022-09-21T04:08:32;5.60;99.90
26947;DHT22;14501;52.282;10.560;2022-09-21T04:10:58;5.60;99.90
26947;DHT22;14501;52.282;10.560;2022-09-21T04:13:24;5.50;99.90
26947;DHT22;14501;52.282;10.560;2022-09-21T04:15:50;5.50;99.90
26947;DHT22;14501;52.282;10.560;2022-09-21T04:18:15;5.50;99.90
26947;DHT22;14501;52.282;10.560;2022-09-21T04:20:41;5.50;99.90
26947;DHT22;14501;52.282;10.560;2022-09-21T04:23:06;5.50;99.90
26947;DHT22;14501;52.282;10.560;2022-09-21T04:25:34;5.50;99.90
26947;DHT22;14501;52.282;10.560;2022-09-21T04:28:00;5.50;99.90
26947;DHT22;14501;52.282;10.560;2022-09-21T04:30:26;5.50;99.90
26947;DHT22;14501;52.282;10.560;2022-09-21T04:32:51;5.40;99.90
26947;DHT22;14501;52.282;10.560;2022-09-21T04:35:17;5.50;99.90
26947;DHT22;14501;52.282;10.560;2022-09-21T04:37:43;5.40;99.90
26947;DHT22;14501;52.282;10.560;2022-09-21T04:40:08;5.50;99.90
26947;DHT22;14501;52.282;10.560;2022-09-21T04:42:34;5.50;99.90
26947;DHT22;14501;52.282;10.560;2022-09-21T04:45:00;5.90;99.90
26947;DHT22;14501;52.282;10.560;2022-09-21T04:47:28;5.50;99.90
26947;DHT22;14501;52.282;10.560;2022-09-21T04:49:54;5.50;99.90
26947;DHT22;14501;52.282;10.560;2022-09-21T04:52:20;7.60;99.90
26947;DHT22;14501;52.282;10.560;2022-09-21T04:54:46;6.40;99.90
26947;DHT22;14501;52.282;10.560;2022-09-21T04:57:12;5.40;99.90
26947;DHT22;14501;52.282;10.560;2022-09-21T04:59:38;5.90;99.90
26947;DHT22;14501;52.282;10.560;2022-09-21T05:02:04;5.40;99.90
26947;DHT22;14501;52.282;10.560;2022-09-21T05:04:29;5.40;99.90
26947;DHT22;14501;52.282;10.560;2022-09-21T05:06:55;5.40;99.90
26947;DHT22;14501;52.282;10.560;2022-09-21T05:09:22;6.10;99.90
26947;DHT22;14501;52.282;10.560;2022-09-21T05:12:07;5.50;99.90
26947;DHT22;14501;52.282;10.560;2022-09-21T05:14:32;5.40;99.90
26947;DHT22;14501;52.282;10.560;2022-09-21T05:16:58;5.70;99.90
26947;DHT22;14501;52.282;10.560;2022-09-21T05:19:23;8.10;99.90
26947;DHT22;14501;52.282;10.560;2022-09-21T05:21:49;5.50;99.90
26947;DHT22;14501;52.282;10.560;2022-09-21T05:24:15;7.50;99.90
26947;DHT22;14501;52.282;10.560;2022-09-21T05:26:40;5.30;99.90
26947;DHT22;14501;52.282;10.560;2022-09-21T05:29:07;6.00;99.90
26947;DHT22;14501;52.282;10.560;2022-09-21T05:34:34;5.60;99.90
26947;DHT22;14501;52.282;10.560;2022-09-21T05:39:48;5.70;99.90
26947;DHT22;14501;52.282;10.560;2022-09-21T05:42:14;5.80;99.90
26947;DHT22;14501;52.282;10.560;2022-09-21T05:44:40;5.80;99.90
26947;DHT22;14501;52.282;10.560;2022-09-21T05:47:15;6.00;99.90
26947;DHT22;14501;52.282;10.560;2022-09-21T05:50:02;6.00;99.90
26947;DHT22;14501;52.282;10.560;2022-09-21T05:52:35;5.90;99.90
26947;DHT22;14501;52.282;10.560;2022-09-21T05:55:29;6.20;99.90
26947;DHT22;14501;52.282;10.560;2022-09-21T05:58:13;6.20;99.90
26947;DHT22;14501;52.282;10.560;2022-09-21T06:01:33;6.40;99.90
26947;DHT22;14501;52.282;10.560;2022-09-21T06:03:35;6.60;99.90
26947;DHT22;14501;52.282;10.560;2022-09-21T06:06:01;6.50;99.90
26947;DHT22;14501;52.282;10.560;2022-09-21T06:08:27;7.30;99.90
26947;DHT22;14501;52.282;10.560;2022-09-21T06:10:53;6.80;99.90
26947;DHT22;14501;52.282;10.560;2022-09-21T06:13:19;6.90;99.90
26947;DHT22;14501;52.282;10.560;2022-09-21T06:15:45;6.90;99.90
26947;DHT22;14501;52.282;10.560;2022-09-21T06:18:11;7.00;99.90
26947;DHT22;14501;52.282;10.560;2022-09-21T06:20:36;7.20;99.90
26947;DHT22;14501;52.282;10.560;2022-09-21T06:23:08;7.20;99.90
26947;DHT22;14501;52.282;10.560;2022-09-21T06:25:34;7.40;99.90
26947;DHT22;14501;52.282;10.560;2022-09-21T06:28:08;7.50;99.90
26947;DHT22;14501;52.282;10.560;2022-09-21T06:30:34;7.60;99.90
26947;DHT22;14501;52.282;10.560;2022-09-21T06:33:01;7.70;99.90
26947;DHT22;14501;52.282;10.560;2022-09-21T06:35:28;7.70;99.90
26947;DHT22;14501;52.282;10.560;2022-09-21T06:38:01;8.00;99.90
26947;DHT22;14501;52.282;10.560;2022-09-21T06:40:28;8.10;99.90
26947;DHT22;14501;52.282;10.560;2022-09-21T06:42:58;8.10;99.90
26947;DHT22;14501;52.282;10.560;2022-09-21T06:45:25;8.20;99.90
26947;DHT22;14501;52.282;10.560;2022-09-21T06:47:51;8.50;99.90
26947;DHT22;14501;52.282;10.560;2022-09-21T06:50:17;8.50;99.90
26947;DHT22;14501;52.282;10.560;2022-09-21T06:52:42;11.00;99.90
26947;DHT22;14501;52.282;10.560;2022-09-21T06:55:08;8.70;99.90
26947;DHT22;14501;52.282;10.560;2022-09-21T06:57:35;8.80;99.90
26947;DHT22;14501;52.282;10.560;2022-09-21T07:00:04;9.10;99.90
26947;DHT22;14501;52.282;10.560;2022-09-21T07:02:30;9.10;99.90
26947;DHT22;14501;52.282;10.560;2022-09-21T07:04:56;9.30;99.90
26947;DHT22;14501;52.282;10.560;2022-09-21T07:07:23;11.10;99.90
26947;DHT22;14501;52.282;10.560;2022-09-21T07:09:48;9.40;99.90
26947;DHT22;14501;52.282;10.560;2022-09-21T07:12:14;10.90;99.90
26947;DHT22;14501;52.282;10.560;2022-09-21T07:14:40;9.60;99.90
26947;DHT22;14501;52.282;10.560;2022-09-21T07:17:08;11.00;99.90
26947;DHT22;14501;52.282;10.560;2022-09-21T07:19:34;9.60;99.90
26947;DHT22;14501;52.282;10.560;2022-09-21T07:21:59;9.60;99.90
26947;DHT22;14501;52.282;10.560;2022-09-21T07:24:25;10.50;99.90
26947;DHT22;14501;52.282;10.560;2022-09-21T07:26:50;10.10;99.90
26947;DHT22;14501;52.282;10.560;2022-09-21T07:29:17;9.80;99.90
26947;DHT22;14501;52.282;10.560;2022-09-21T07:31:43;9.70;99.90
26947;DHT22;14501;52.282;10.560;2022-09-21T07:34:12;9.90;99.90
26947;DHT22;14501;52.282;10.560;2022-09-21T07:36:38;11.20;99.90
26947;DHT22;14501;52.282;10.560;2022-09-21T07:39:04;10.90;99.90
26947;DHT22;14501;52.282;10.560;2022-09-21T07:41:30;10.40;99.90
26947;DHT22;14501;52.282;10.560;2022-09-21T07:43:55;10.20;99.90
26947;DHT22;14501;52.282;10.560;2022-09-21T07:46:21;10.30;99.90
26947;DHT22;14501;52.282;10.560;2022-09-21T07:48:47;10.30;99.90
26947;DHT22;14501;52.282;10.560;2022-09-21T07:51:14;10.40;99.90
26947;DHT22;14501;52.282;10.560;2022-09-21T07:53:42;10.50;99.90
26947;DHT22;14501;52.282;10.560;2022-09-21T07:56:14;10.50;99.90
26947;DHT22;14501;52.282;10.560;2022-09-21T07:58:40;10.80;99.90
26947;DHT22;14501;52.282;10.560;2022-09-21T08:01:26;10.80;99.90
26947;DHT22;14501;52.282;10.560;2022-09-21T08:03:54;11.00;99.90
26947;DHT22;14501;52.282;10.560;2022-09-21T08:06:20;11.20;99.90
26947;DHT22;14501;52.282;10.560;2022-09-21T08:08:46;11.70;99.90
26947;DHT22;14501;52.282;10.560;2022-09-21T08:11:14;11.80;99.90
26947;DHT22;14501;52.282;10.560;2022-09-21T08:13:40;13.50;99.90
26947;DHT22;14501;52.282;10.560;2022-09-21T08:16:05;16.30;99.90
26947;DHT22;14501;52.282;10.560;2022-09-21T08:18:31;19.30;99.90
26947;DHT22;14501;52.282;10.560;2022-09-21T08:21:00;21.50;99.90
26947;DHT22;14501;52.282;10.560;2022-09-21T08:23:26;26.30;99.90
26947;DHT22;14501;52.282;10.560;2022-09-21T08:26:00;26.20;99.90
26947;DHT22;14501;52.282;10.560;2022-09-21T08:28:27;27.70;99.90
26947;DHT22;14501;52.282;10.560;2022-09-21T08:30:52;27.90;99.40
26947;DHT22;14501;52.282;10.560;2022-09-21T08:33:18;29.20;97.30
26947;DHT22;14501;52.282;10.560;2022-09-21T08:35:51;29.90;94.10
26947;DHT22;14501;52.282;10.560;2022-09-21T08:38:17;31.30;93.70
26947;DHT22;14501;52.282;10.560;2022-09-21T08:40:42;32.00;91.20
26947;DHT22;14501;52.282;10.560;2022-09-21T08:43:14;32.40;87.70
26947;DHT22;14501;52.282;10.560;2022-09-21T08:45:43;32.50;85.80
26947;DHT22;14501;52.282;10.560;2022-09-21T08:48:20;32.20;86.00
26947;DHT22;14501;52.282;10.560;2022-09-21T08:50:50;33.00;85.10
26947;DHT22;14501;52.282;10.560;2022-09-21T08:55:55;33.60;80.80
26947;DHT22;14501;52.282;10.560;2022-09-21T09:06:40;34.10;81.10
26947;DHT22;14501;52.282;10.560;2022-09-21T09:20:13;34.00;74.40
26947;DHT22;14501;52.282;10.560;2022-09-21T09:22:48;34.10;77.60
26947;DHT22;14501;52.282;10.560;2022-09-21T09:25:23;33.80;78.10
26947;DHT22;14501;52.282;10.560;2022-09-21T09:27:59;33.80;80.80
26947;DHT22;14501;52.282;10.560;2022-09-21T09:30:32;32.90;76.10
26947;DHT22;14501;52.282;10.560;2022-09-21T09:33:11;32.80;77.40
26947;DHT22;14501;52.282;10.560;2022-09-21T09:35:53;32.90;79.70
26947;DHT22;14501;52.282;10.560;2022-09-21T09:38:38;32.80;80.80
26947;DHT22;14501;52.282;10.560;2022-09-21T09:51:28;33.00;75.60
26947;DHT22;14501;52.282;10.560;2022-09-21T09:53:57;32.00;78.60
26947;DHT22;14501;52.282;10.560;2022-09-21T09:56:23;32.50;79.80
26947;DHT22;14501;52.282;10.560;2022-09-21T09:58:53;33.00;78.70
26947;DHT22;14501;52.282;10.560;2022-09-21T10:04:06;32.20;78.50
26947;DHT22;14501;52.282;10.560;2022-09-21T10:06:33;32.20;79.50
26947;DHT22;14501;52.282;10.560;2022-09-21T10:08:58;32.00;79.50
26947;DHT22;14501;52.282;10.560;2022-09-21T10:11:34;30.40;78.30
26947;DHT22;14501;52.282;10.560;2022-09-21T10:14:09;28.90;84.80
26947;DHT22;14501;52.282;10.560;2022-09-21T10:16:40;27.60;86.20
26947;DHT22;14501;52.282;10.560;2022-09-21T10:19:14;26.10;90.00
26947;DHT22;14501;52.282;10.560;2022-09-21T10:21:42;25.30;92.00
26947;DHT22;14501;52.282;10.560;2022-09-21T10:24:21;24.60;92.50
26947;DHT22;14501;52.282;10.560;2022-09-21T10:32:04;24.20;96.60
26947;DHT22;14501;52.282;10.560;2022-09-21T10:34:33;24.20;96.20
26947;DHT22;14501;52.282;10.560;2022-09-21T10:37:02;24.10;96.00
26947;DHT22;14501;52.282;10.560;2022-09-21T10:39:46;23.60;94.10
26947;DHT22;14501;52.282;10.560;2022-09-21T10:42:14;23.60;95.10
26947;DHT22;14501;52.282;10.560;2022-09-21T10:44:45;23.00;96.10
26947;DHT22;14501;52.282;10.560;2022-09-21T10:48:05;22.50;99.90
26947;DHT22;14501;52.282;10.560;2022-09-21T10:50:24;22.20;98.70
26947;DHT22;14501;52.282;10.560;2022-09-21T10:53:40;22.10;99.90
26947;DHT22;14501;52.282;10.560;2022-09-21T10:58:20;21.50;99.90
26947;DHT22;14501;52.282;10.560;2022-09-21T11:00:48;20.30;99.90
26947;DHT22;14501;52.282;10.560;2022-09-21T11:03:32;20.10;99.90
26947;DHT22;14501;52.282;10.560;2022-09-21T11:06:13;19.60;99.90
26947;DHT22;14501;52.282;10.560;2022-09-21T11:08:48;19.00;99.90
26947;DHT22;14501;52.282;10.560;2022-09-21T11:11:42;18.50;99.90
26947;DHT22;14501;52.282;10.560;2022-09-21T11:17:14;18.00;99.90
26947;DHT22;14501;52.282;10.560;2022-09-21T11:25:29;17.90;99.90
26947;DHT22;14501;52.282;10.560;2022-09-21T11:28:21;18.00;99.90
26947;DHT22;14501;52.282;10.560;2022-09-21T11:36:45;20.50;99.90
26947;DHT22;14501;52.282;10.560;2022-09-21T11:45:02;19.80;99.90
26947;DHT22;14501;52.282;10.560;2022-09-21T11:53:07;18.50;99.90
26947;DHT22;14501;52.282;10.560;2022-09-21T11:56:09;18.10;99.90
26947;DHT22;14501;52.282;10.560;2022-09-21T12:12:44;17.90;99.90
26947;DHT22;14501;52.282;10.560;2022-09-21T12:15:27;18.60;99.90
26947;DHT22;14501;52.282;10.560;2022-09-21T12:18:24;19.10;99.90
26947;DHT22;14501;52.282;10.560;2022-09-21T12:23:33;19.20;99.90
26947;DHT22;14501;52.282;10.560;2022-09-21T12:26:02;18.90;99.90
26947;DHT22;14501;52.282;10.560;2022-09-21T12:28:39;18.70;99.90
26947;DHT22;14501;52.282;10.560;2022-09-21T12:31:41;18.60;99.90
26947;DHT22;14501;52.282;10.560;2022-09-21T12:34:21;18.60;99.90
26947;DHT22;14501;52.282;10.560;2022-09-21T12:37:11;18.80;99.90
26947;DHT22;14501;52.282;10.560;2022-09-21T12:39:46;18.90;99.90
26947;DHT22;14501;52.282;10.560;2022-09-21T12:42:52;19.00;99.90
26947;DHT22;14501;52.282;10.560;2022-09-21T12:45:29;19.00;99.90
26947;DHT22;14501;52.282;10.560;2022-09-21T12:48:09;19.10;99.90
26947;DHT22;14501;52.282;10.560;2022-09-21T12:53:47;18.70;99.90
26947;DHT22;14501;52.282;10.560;2022-09-21T12:56:31;18.50;99.90
26947;DHT22;14501;52.282;10.560;2022-09-21T12:59:21;18.30;99.90
26947;DHT22;14501;52.282;10.560;2022-09-21T13:02:04;18.20;99.90
26947;DHT22;14501;52.282;10.560;2022-09-21T13:07:14;18.00;99.90
26947;DHT22;14501;52.282;10.560;2022-09-21T13:09:45;17.80;99.90
26947;DHT22;14501;52.282;10.560;2022-09-21T13:12:18;17.80;99.90
26947;DHT22;14501;52.282;10.560;2022-09-21T13:14:47;17.70;99.90
26947;DHT22;14501;52.282;10.560;2022-09-21T13:17:30;17.60;99.90
26947;DHT22;14501;52.282;10.560;2022-09-21T13:22:27;17.30;99.90
26947;DHT22;14501;52.282;10.560;2022-09-21T13:25:04;17.10;99.90
26947;DHT22;14501;52.282;10.560;2022-09-21T13:27:57;16.90;99.90
26947;DHT22;14501;52.282;10.560;2022-09-21T13:33:01;16.60;99.90
26947;DHT22;14501;52.282;10.560;2022-09-21T13:41:24;16.70;99.90
26947;DHT22;14501;52.282;10.560;2022-09-21T13:54:20;17.10;99.90
26947;DHT22;14501;52.282;10.560;2022-09-21T13:57:02;16.90;99.90
26947;DHT22;14501;52.282;10.560;2022-09-21T13:59:30;16.70;99.90
26947;DHT22;14501;52.282;10.560;2022-09-21T14:01:57;16.40;99.90
26947;DHT22;14501;52.282;10.560;2022-09-21T14:04:26;16.10;99.90
26947;DHT22;14501;52.282;10.560;2022-09-21T14:06:53;15.60;99.90
26947;DHT22;14501;52.282;10.560;2022-09-21T14:09:28;15.50;99.90
26947;DHT22;14501;52.282;10.560;2022-09-21T14:12:01;15.40;99.90
26947;DHT22;14501;52.282;10.560;2022-09-21T14:14:32;15.30;99.90
26947;DHT22;14501;52.282;10.560;2022-09-21T14:24:39;15.90;99.90
26947;DHT22;14501;52.282;10.560;2022-09-21T14:27:30;16.10;99.90
26947;DHT22;14501;52.282;10.560;2022-09-21T14:32:36;16.40;99.90
26947;DHT22;14501;52.282;10.560;2022-09-21T14:35:14;16.60;99.90
26947;DHT22;14501;52.282;10.560;2022-09-21T14:37:54;16.70;99.90
26947;DHT22;14501;52.282;10.560;2022-09-21T14:40:34;16.70;99.90
26947;DHT22;14501;52.282;10.560;2022-09-21T14:43:11;16.60;99.90
26947;DHT22;14501;52.282;10.560;2022-09-21T14:51:47;16.70;99.90
26947;DHT22;14501;52.282;10.560;2022-09-21T15:02:48;16.60;99.90
26947;DHT22;14501;52.282;10.560;2022-09-21T15:05:36;16.50;99.90
26947;DHT22;14501;52.282;10.560;2022-09-21T15:08:08;16.50;99.90
26947;DHT22;14501;52.282;10.560;2022-09-21T15:16:41;16.30;99.90
26947;DHT22;14501;52.282;10.560;2022-09-21T15:21:46;16.30;99.90
26947;DHT22;14501;52.282;10.560;2022-09-21T15:24:25;16.30;99.90
26947;DHT22;14501;52.282;10.560;2022-09-21T15:26:54;16.20;99.90
26947;DHT22;14501;52.282;10.560;2022-09-21T15:29:25;16.20;99.90
26947;DHT22;14501;52.282;10.560;2022-09-21T15:31:52;16.20;99.90
26947;DHT22;14501;52.282;10.560;2022-09-21T15:36:45;16.20;99.90
26947;DHT22;14501;52.282;10.560;2022-09-21T15:39:30;16.20;99.90
26947;DHT22;14501;52.282;10.560;2022-09-21T15:44:34;16.10;99.90
26947;DHT22;14501;52.282;10.560;2022-09-21T15:47:10;16.10;99.90
26947;DHT22;14501;52.282;10.560;2022-09-21T15:49:41;16.10;99.90
26947;DHT22;14501;52.282;10.560;2022-09-21T15:52:33;16.00;99.90
26947;DHT22;14501;52.282;10.560;2022-09-21T15:55:15;16.00;99.90
26947;DHT22;14501;52.282;10.560;2022-09-21T15:57:53;16.00;99.90
26947;DHT22;14501;52.282;10.560;2022-09-21T16:00:27;16.10;99.90
26947;DHT22;14501;52.282;10.560;2022-09-21T16:03:18;16.00;99.90
26947;DHT22;14501;52.282;10.560;2022-09-21T16:05:49;16.10;99.90
26947;DHT22;14501;52.282;10.560;2022-09-21T16:08:33;16.10;99.90
26947;DHT22;14501;52.282;10.560;2022-09-21T16:11:18;16.30;99.90
26947;DHT22;14501;52.282;10.560;2022-09-21T16:13:45;16.20;99.90
26947;DHT22;14501;52.282;10.560;2022-09-21T16:16:30;16.20;99.90
26947;DHT22;14501;52.282;10.560;2022-09-21T16:18:56;16.10;99.90
26947;DHT22;14501;52.282;10.560;2022-09-21T16:21:30;16.00;99.90
26947;DHT22;14501;52.282;10.560;2022-09-21T16:24:17;15.90;99.90
26947;DHT22;14501;52.282;10.560;2022-09-21T16:27:00;15.70;99.90
26947;DHT22;14501;52.282;10.560;2022-09-21T16:29:36;15.50;99.90
26947;DHT22;14501;52.282;10.560;2022-09-21T16:32:20;15.30;99.90
26947;DHT22;14501;52.282;10.560;2022-09-21T16:34:52;15.30;99.90
26947;DHT22;14501;52.282;10.560;2022-09-21T16:37:28;15.30;99.90
26947;DHT22;14501;52.282;10.560;2022-09-21T16:39:56;15.20;99.90
26947;DHT22;14501;52.282;10.560;2022-09-21T16:42:23;15.20;99.90
26947;DHT22;14501;52.282;10.560;2022-09-21T16:44:58;15.10;99.90
26947;DHT22;14501;52.282;10.560;2022-09-21T16:47:27;15.00;99.90
26947;DHT22;14501;52.282;10.560;2022-09-21T16:49:55;15.00;99.90
26947;DHT22;14501;52.282;10.560;2022-09-21T16:52:26;14.90;99.90
26947;DHT22;14501;52.282;10.560;2022-09-21T16:54:55;14.70;99.90
26947;DHT22;14501;52.282;10.560;2022-09-21T16:57:23;14.60;99.90
26947;DHT22;14501;52.282;10.560;2022-09-21T16:59:50;14.50;99.90
26947;DHT22;14501;52.282;10.560;2022-09-21T17:02:16;14.30;99.90
26947;DHT22;14501;52.282;10.560;2022-09-21T17:04:42;11.50;99.90
26947;DHT22;14501;52.282;10.560;2022-09-21T17:07:12;14.00;99.90
26947;DHT22;14501;52.282;10.560;2022-09-21T17:09:40;13.90;99.90
26947;DHT22;14501;52.282;10.560;2022-09-21T17:12:11;13.70;99.90
26947;DHT22;14501;52.282;10.560;2022-09-21T17:14:37;13.40;99.90
26947;DHT22;14501;52.282;10.560;2022-09-21T17:17:36;13.40;99.90
26947;DHT22;14501;52.282;10.560;2022-09-21T17:19:57;13.20;99.90
26947;DHT22;14501;52.282;10.560;2022-09-21T17:22:26;13.00;99.90
26947;DHT22;14501;52.282;10.560;2022-09-21T17:24:53;12.80;99.90
26947;DHT22;14501;52.282;10.560;2022-09-21T17:27:24;12.70;99.90
26947;DHT22;14501;52.282;10.560;2022-09-21T17:29:50;12.60;99.90
26947;DHT22;14501;52.282;10.560;2022-09-21T17:32:19;12.50;99.90
26947;DHT22;14501;52.282;10.560;2022-09-21T17:34:46;12.20;99.90
26947;DHT22;14501;52.282;10.560;2022-09-21T17:37:14;12.20;99.90
26947;DHT22;14501;52.282;10.560;2022-09-21T17:39:40;12.10;99.90
26947;DHT22;14501;52.282;10.560;2022-09-21T17:42:18;12.00;99.90
26947;DHT22;14501;52.282;10.560;2022-09-21T17:45:31;11.70;99.90
26947;DHT22;14501;52.282;10.560;2022-09-21T17:47:37;11.70;99.90
26947;DHT22;14501;52.282;10.560;2022-09-21T17:52:39;11.50;99.90
26947;DHT22;14501;52.282;10.560;2022-09-21T17:55:24;11.20;99.90
26947;DHT22;14501;52.282;10.560;2022-09-21T18:00:30;11.20;99.90
26947;DHT22;14501;52.282;10.560;2022-09-21T18:02:59;11.10;99.90
26947;DHT22;14501;52.282;10.560;2022-09-21T18:05:29;10.90;99.90
26947;DHT22;14501;52.282;10.560;2022-09-21T18:07:55;10.80;99.90
26947;DHT22;14501;52.282;10.560;2022-09-21T18:10:22;10.80;99.90
26947;DHT22;14501;52.282;10.560;2022-09-21T18:18:27;10.50;99.90
26947;DHT22;14501;52.282;10.560;2022-09-21T18:21:04;10.50;99.90
26947;DHT22;14501;52.282;10.560;2022-09-21T18:26:36;10.30;99.90
26947;DHT22;14501;52.282;10.560;2022-09-21T18:29:04;10.30;99.90
26947;DHT22;14501;52.282;10.560;2022-09-21T18:31:48;10.20;99.90
26947;DHT22;14501;52.282;10.560;2022-09-21T18:34:26;10.20;99.90
26947;DHT22;14501;52.282;10.560;2022-09-21T18:53:48;9.80;99.90
26947;DHT22;14501;52.282;10.560;2022-09-21T18:56:14;9.70;99.90
26947;DHT22;14501;52.282;10.560;2022-09-21T18:58:41;9.60;99.90
26947;DHT22;14501;52.282;10.560;2022-09-21T19:01:13;9.60;99.90
26947;DHT22;14501;52.282;10.560;2022-09-21T19:03:41;9.50;99.90
26947;DHT22;14501;52.282;10.560;2022-09-21T19:17:13;9.40;99.90
26947;DHT22;14501;52.282;10.560;2022-09-21T19:22:35;9.30;99.90
26947;DHT22;14501;52.282;10.560;2022-09-21T19:25:14;9.20;99.90
26947;DHT22;14501;52.282;10.560;2022-09-21T19:31:00;9.20;99.90
26947;DHT22;14501;52.282;10.560;2022-09-21T19:33:29;9.20;99.90
26947;DHT22;14501;52.282;10.560;2022-09-21T19:35:56;9.10;99.90
26947;DHT22;14501;52.282;10.560;2022-09-21T19:38:22;9.10;99.90
26947;DHT22;14501;52.282;10.560;2022-09-21T19:40:51;9.10;99.90
26947;DHT22;14501;52.282;10.560;2022-09-21T19:43:38;9.10;99.90
26947;DHT22;14501;52.282;10.560;2022-09-21T19:46:09;9.10;99.90